Aeroporto :
LOGIN :

Iscrizione | Disclaimer

   EN    FR    IT 

 










Sommario :    VFR   VFR Marginale   IFR   IFR Intensivo   IFR Molto Intensivo
Visibilità : 
Base nubi : 
>= 8 km
>= 3000ft
5 / 8 km
1000 / 3000 ft
1500m / 5 km
500 / 1000 ft
800 / 1500m
200 / 500 ft
< 800m
< 200 ft
Simboli :   Temporali  Nebbia  Neve Forte  Precipitazioni Forti  Vento > 20 kt
SIGMETs :   Varie  Temporali  Ghiacco  Turbolenza  Onda orograficha  Ceneri Vulcaniche







- Altitudine del aeroporto : 12 ft
- Codice IATA : BCN


LEBL - Barcelone

ULTIMO METAR :
  • 200930Z 11008KT CAVOK 28/21 Q1016 NOSIG

METARs OBSOLETI :
  • 200900Z 11007KT 070V150 CAVOK 29/21 Q1016 NOSIG
  • 200830Z 02003KT 9999 FEW025 28/19 Q1016 NOSIG
  • 200800Z 32004KT 290V010 9999 FEW025 27/20 Q1016 NOSIG
  • 200730Z 33007KT 290V350 9999 FEW025 26/20 Q1016 NOSIG
  • 200700Z 33008KT 290V360 9999 FEW020 25/20 Q1016 NOSIG

TAF TAF LEBL
Valido dal 20 a 06 ore il 21 a 06 ore UTC


200500Z 2006/2106 34006KT 9999 FEW020 TX30/2012Z TN22/2006Z
BECMG 2007/2009 12006KT
BECMG 2018/2020 05004KT
BECMG 2023/2101 34006KT
Nessun NOTAM noto per questo aeroporto.



MetMap, La meteo Aeronautica in un colpo d'occhio ! - Copyright ORBIFLY Dicembre 2007 - Disclaimer

ORBIFLY MET'MAP TEAM :

Programmazione e sviluppo : Alexandra Zaïnal
Concezione e sviluppo : Baudouin d'Aumeries
Co-Programmazione e sviluppo : Marc-Olivier Méhu
Supporto tecnico e logistico : Manuel Goepfert
Aiuto per la traduzione : Arnaldo La Scala

Contatto : metmap@orbifly.com




FONTI E CREDITI :

   NOAA